createdAt,value
2022-11-04T00:00:32.399Z,14.80
2022-11-04T00:03:02.132Z,14.20
2022-11-04T00:05:30.287Z,14.90
2022-11-04T00:08:16.015Z,13.80
2022-11-04T00:11:01.567Z,13.50
2022-11-04T00:13:30.796Z,13.80
2022-11-04T00:16:20.609Z,13.80
2022-11-04T00:18:50.194Z,14.60
2022-11-04T00:21:35.847Z,14.60
2022-11-04T00:24:21.857Z,14.20
2022-11-04T00:27:07.713Z,15.20
2022-11-04T00:29:35.984Z,14.60
2022-11-04T00:32:21.568Z,13.40
2022-11-04T00:34:51.251Z,14.00
2022-11-04T00:37:19.460Z,14.70
2022-11-04T00:39:47.660Z,14.10
2022-11-04T00:42:15.815Z,14.30
2022-11-04T00:44:44.016Z,14.20
2022-11-04T00:47:12.174Z,14.60
2022-11-04T00:49:40.363Z,14.70
2022-11-04T00:52:09.914Z,15.00
2022-11-04T00:54:38.172Z,15.00
2022-11-04T00:57:06.389Z,14.70
2022-11-04T00:59:34.595Z,15.40
2022-11-04T01:02:02.925Z,15.50
2022-11-04T01:04:31.587Z,15.70
2022-11-04T01:06:59.790Z,15.90
2022-11-04T01:09:29.739Z,16.20
2022-11-04T01:11:58.004Z,15.60
2022-11-04T01:14:26.276Z,16.20
2022-11-04T01:16:54.488Z,14.80
2022-11-04T01:19:23.053Z,13.70
2022-11-04T01:21:54.407Z,14.60
2022-11-04T01:24:22.652Z,13.80
2022-11-04T01:26:52.187Z,14.30
2022-11-04T01:29:20.530Z,14.70
2022-11-04T01:31:48.667Z,14.50
2022-11-04T01:34:17.019Z,15.10
2022-11-04T01:36:45.214Z,15.40
2022-11-04T01:39:13.698Z,15.30
2022-11-04T01:41:41.928Z,16.00
2022-11-04T01:44:55.451Z,15.10
2022-11-04T01:47:31.396Z,15.30
2022-11-04T01:50:05.972Z,15.00
2022-11-04T01:52:38.976Z,14.20
2022-11-04T01:55:14.605Z,15.20
2022-11-04T01:57:46.058Z,15.70
2022-11-04T02:00:17.776Z,15.40
2022-11-04T02:02:58.144Z,15.80
2022-11-04T02:05:26.384Z,15.70
2022-11-04T02:07:59.016Z,15.80
2022-11-04T02:10:29.944Z,15.50
2022-11-04T02:13:01.017Z,14.70
2022-11-04T02:15:39.119Z,14.70
2022-11-04T02:18:47.348Z,14.70
2022-11-04T02:21:53.761Z,15.10
2022-11-04T02:24:49.560Z,15.70
2022-11-04T02:27:32.173Z,15.40
2022-11-04T02:30:11.549Z,14.80
2022-11-04T02:33:10.737Z,15.90
2022-11-04T02:35:49.068Z,16.40
2022-11-04T02:38:31.664Z,16.10
2022-11-04T02:41:10.391Z,15.00
2022-11-04T02:43:49.038Z,14.80
2022-11-04T02:46:25.782Z,14.80
2022-11-04T02:49:01.591Z,15.60
2022-11-04T02:51:34.238Z,15.10
2022-11-04T02:54:07.316Z,15.90
2022-11-04T02:56:42.262Z,15.90
2022-11-04T02:59:17.189Z,15.30
2022-11-04T03:01:50.573Z,15.20
2022-11-04T03:04:24.367Z,14.80
2022-11-04T03:06:55.781Z,15.30
2022-11-04T03:09:26.342Z,14.00
2022-11-04T03:12:02.360Z,14.20
2022-11-04T03:14:37.040Z,15.20
2022-11-04T03:17:12.139Z,15.00
2022-11-04T03:19:45.963Z,15.20
2022-11-04T03:22:18.486Z,15.40
2022-11-04T03:24:48.400Z,15.10
2022-11-04T03:27:26.227Z,14.90
2022-11-04T03:30:01.153Z,15.30
2022-11-04T03:32:41.272Z,14.60
2022-11-04T03:35:10.138Z,15.00
2022-11-04T03:37:38.346Z,14.90
2022-11-04T03:40:08.403Z,15.60
2022-11-04T03:42:41.292Z,15.40
2022-11-04T03:45:11.257Z,15.20
2022-11-04T03:47:41.855Z,15.30
2022-11-04T03:50:19.161Z,15.10
2022-11-04T03:52:47.581Z,15.30
2022-11-04T03:55:16.451Z,15.50
2022-11-04T03:57:53.347Z,14.00
2022-11-04T04:00:23.832Z,15.20
2022-11-04T04:03:05.692Z,14.90
2022-11-04T04:05:40.337Z,15.50
2022-11-04T04:08:19.225Z,15.10
2022-11-04T04:10:59.047Z,15.60
2022-11-04T04:13:40.066Z,15.60
2022-11-04T04:16:13.995Z,15.50
2022-11-04T04:18:52.701Z,15.10
2022-11-04T04:21:30.074Z,15.70
2022-11-04T04:24:18.944Z,15.60
2022-11-04T04:27:07.071Z,15.80
2022-11-04T04:29:36.614Z,16.10
2022-11-04T04:32:06.600Z,16.20
2022-11-04T04:34:36.639Z,16.00
2022-11-04T04:37:10.314Z,15.90
2022-11-04T04:40:00.893Z,15.70
2022-11-04T04:42:51.611Z,15.20
2022-11-04T04:45:29.239Z,15.50
2022-11-04T04:47:58.641Z,16.00
2022-11-04T04:50:35.414Z,15.90
2022-11-04T04:53:04.142Z,16.00
2022-11-04T04:55:36.179Z,15.90
2022-11-04T04:58:07.214Z,15.80
2022-11-04T05:00:35.469Z,16.10
2022-11-04T05:03:03.774Z,16.30
2022-11-04T05:05:33.420Z,15.50
2022-11-04T05:08:07.586Z,15.50
2022-11-04T05:10:36.341Z,15.10
2022-11-04T05:13:22.202Z,15.30
2022-11-04T05:15:50.480Z,14.80
2022-11-04T05:18:18.895Z,15.50
2022-11-04T05:20:48.550Z,15.90
2022-11-04T05:23:16.840Z,16.20
2022-11-04T05:25:45.195Z,16.30
2022-11-04T05:28:13.708Z,16.00
2022-11-04T05:30:41.956Z,16.10
2022-11-04T05:33:10.601Z,16.40
2022-11-04T05:35:39.083Z,16.40
2022-11-04T05:38:08.749Z,16.50
2022-11-04T05:40:37.081Z,16.50
2022-11-04T05:43:05.556Z,16.60
2022-11-04T05:45:34.104Z,16.60
2022-11-04T05:48:04.888Z,16.60
2022-11-04T05:50:34.960Z,16.50
2022-11-04T05:53:03.183Z,16.60
2022-11-04T05:55:32.891Z,16.50
2022-11-04T05:58:01.200Z,16.50
2022-11-04T06:00:29.789Z,16.50
2022-11-04T06:02:58.349Z,16.50
2022-11-04T06:05:27.417Z,16.50
2022-11-04T06:07:56.061Z,16.50
2022-11-04T06:10:24.665Z,16.50
2022-11-04T06:12:54.279Z,16.50
2022-11-04T06:15:22.548Z,16.50
2022-11-04T06:17:50.883Z,16.50
2022-11-04T06:20:19.307Z,16.40
2022-11-04T06:22:47.566Z,16.50
2022-11-04T06:25:15.871Z,16.40
2022-11-04T06:27:44.116Z,16.30
2022-11-04T06:30:14.469Z,16.30
2022-11-04T06:32:42.768Z,16.40
2022-11-04T06:35:11.189Z,16.30
2022-11-04T06:37:39.644Z,16.40
2022-11-04T06:40:09.666Z,16.40
2022-11-04T06:42:38.927Z,16.40
2022-11-04T06:45:08.429Z,16.40
2022-11-04T06:47:38.006Z,16.50
2022-11-04T06:50:07.149Z,16.50
2022-11-04T06:52:41.058Z,16.50
2022-11-04T06:55:11.780Z,16.30
2022-11-04T06:57:39.996Z,16.40
2022-11-04T07:00:10.081Z,16.10
2022-11-04T07:02:39.990Z,16.30
2022-11-04T07:05:09.359Z,16.20
2022-11-04T07:07:37.603Z,16.10
2022-11-04T07:10:07.107Z,16.10
2022-11-04T07:12:35.368Z,16.10
2022-11-04T07:15:03.663Z,16.40
2022-11-04T07:17:31.974Z,16.30
2022-11-04T07:20:01.580Z,16.30
2022-11-04T07:22:29.831Z,16.30
2022-11-04T07:24:58.102Z,16.20
2022-11-04T07:27:26.397Z,16.10
2022-11-04T07:29:54.618Z,16.20
2022-11-04T07:32:22.880Z,16.30
2022-11-04T07:34:51.113Z,16.40
2022-11-04T07:37:20.760Z,16.40
2022-11-04T07:39:48.982Z,16.40
2022-11-04T07:42:17.258Z,16.40
2022-11-04T07:44:45.522Z,16.20
2022-11-04T07:47:13.986Z,15.40
2022-11-04T07:49:42.354Z,15.70
2022-11-04T07:52:10.633Z,15.10
2022-11-04T07:54:40.215Z,15.50
2022-11-04T07:57:08.499Z,15.70
2022-11-04T07:59:36.735Z,16.00
2022-11-04T08:02:05.262Z,16.10
2022-11-04T08:04:33.588Z,16.30
2022-11-04T08:07:02.071Z,15.80
2022-11-04T08:09:30.288Z,15.40
2022-11-04T08:11:59.879Z,15.60
2022-11-04T08:14:28.102Z,15.40
2022-11-04T08:16:56.332Z,15.10
2022-11-04T08:19:24.610Z,14.70
2022-11-04T08:21:52.913Z,15.00
2022-11-04T08:24:21.313Z,14.70
2022-11-04T08:26:49.604Z,15.20
2022-11-04T08:29:19.475Z,15.00
2022-11-04T08:31:47.839Z,14.40
2022-11-04T08:34:18.267Z,14.80
2022-11-04T08:36:47.451Z,15.10
2022-11-04T08:39:15.973Z,14.50
2022-11-04T08:41:45.518Z,15.50
2022-11-04T08:44:14.969Z,14.90
2022-11-04T08:46:46.314Z,14.60
2022-11-04T08:49:19.469Z,14.50
2022-11-04T08:51:56.418Z,14.70
2022-11-04T08:54:24.997Z,15.00
2022-11-04T08:56:53.615Z,15.10
2022-11-04T08:59:21.881Z,15.30
2022-11-04T09:01:51.558Z,14.70
2022-11-04T09:04:20.478Z,13.60
2022-11-04T09:06:50.919Z,14.00
2022-11-04T09:09:20.246Z,13.30
2022-11-04T09:11:49.276Z,13.10
2022-11-04T09:14:18.527Z,13.00
2022-11-04T09:16:46.824Z,13.00
2022-11-04T09:19:16.445Z,13.80
2022-11-04T09:21:44.794Z,14.10
2022-11-04T09:24:13.136Z,14.10
2022-11-04T09:26:41.459Z,13.10
2022-11-04T09:29:09.955Z,14.00
2022-11-04T09:31:38.637Z,15.10
2022-11-04T09:34:06.900Z,15.40
2022-11-04T09:36:36.505Z,15.60
2022-11-04T09:39:05.782Z,15.60
2022-11-04T09:42:07.369Z,16.60
2022-11-04T09:45:14.844Z,15.60
2022-11-04T09:47:36.377Z,16.00
2022-11-04T09:50:08.535Z,14.80
2022-11-04T09:52:42.902Z,14.80
2022-11-04T09:55:19.388Z,15.70
2022-11-04T09:57:54.750Z,16.20
2022-11-04T10:00:23.424Z,16.10
2022-11-04T10:03:06.176Z,15.30
2022-11-04T10:05:53.601Z,15.10
2022-11-04T10:08:55.535Z,15.30
2022-11-04T10:11:31.475Z,15.90
2022-11-04T10:14:29.219Z,16.90
2022-11-04T10:17:16.200Z,17.00
2022-11-04T10:20:04.605Z,16.80
2022-11-04T10:22:36.738Z,16.20
2022-11-04T10:25:14.532Z,16.70
2022-11-04T10:27:48.128Z,16.20
2022-11-04T10:30:19.772Z,16.50
2022-11-04T10:33:00.787Z,16.80
2022-11-04T10:35:36.401Z,15.60
2022-11-04T10:38:20.836Z,16.50
2022-11-04T10:40:53.471Z,15.70
2022-11-04T10:43:32.592Z,15.50
2022-11-04T10:46:16.716Z,15.30
2022-11-04T10:51:22.204Z,15.30
2022-11-04T10:53:56.387Z,16.10
2022-11-04T10:56:39.457Z,15.40
2022-11-04T10:59:23.088Z,15.90
2022-11-04T11:01:53.537Z,15.10
2022-11-04T11:04:31.276Z,15.50
2022-11-04T11:07:01.936Z,15.10
2022-11-04T11:09:33.294Z,15.30
2022-11-04T11:12:29.503Z,15.70
2022-11-04T11:14:55.151Z,16.30
2022-11-04T11:17:27.245Z,16.40
2022-11-04T11:19:59.141Z,16.20
2022-11-04T11:22:37.482Z,16.20
2022-11-04T11:25:24.485Z,16.80
2022-11-04T11:27:58.052Z,17.10
2022-11-04T11:30:32.992Z,16.90
2022-11-04T11:33:05.031Z,17.10
2022-11-04T11:35:42.188Z,17.30
2022-11-04T11:38:20.143Z,16.30
2022-11-04T11:41:18.357Z,17.00
2022-11-04T11:43:45.417Z,16.90
2022-11-04T11:46:14.735Z,17.30
2022-11-04T11:48:45.495Z,17.40
2022-11-04T11:51:16.836Z,17.00
2022-11-04T11:54:15.682Z,16.90
2022-11-04T11:57:11.997Z,17.00
2022-11-04T12:02:51.719Z,17.40
2022-11-04T12:11:36.170Z,17.60
2022-11-04T12:14:10.220Z,17.60
2022-11-04T12:16:50.488Z,17.50
2022-11-04T12:19:47.949Z,17.50
2022-11-04T12:22:30.429Z,17.60
2022-11-04T12:25:10.828Z,17.70
2022-11-04T12:27:50.669Z,17.60
2022-11-04T12:30:28.219Z,17.60
2022-11-04T12:33:18.447Z,17.90
2022-11-04T12:36:04.003Z,17.60
2022-11-04T12:38:53.841Z,17.70
2022-11-04T12:41:47.157Z,17.80
2022-11-04T12:44:31.027Z,17.90
2022-11-04T12:47:14.956Z,17.90
2022-11-04T12:50:16.415Z,17.80
2022-11-04T12:53:14.471Z,17.90
2022-11-04T12:55:56.117Z,18.00
2022-11-04T12:58:55.933Z,17.90
2022-11-04T13:01:32.308Z,17.80
2022-11-04T13:04:08.108Z,18.00
2022-11-04T13:06:43.203Z,17.60
2022-11-04T13:09:18.379Z,17.70
2022-11-04T13:11:53.876Z,17.80
2022-11-04T13:14:29.563Z,17.60
2022-11-04T13:17:02.240Z,17.70
2022-11-04T13:19:44.638Z,17.80
2022-11-04T13:22:20.074Z,17.80
2022-11-04T13:24:54.801Z,17.80
2022-11-04T13:27:28.164Z,17.80
2022-11-04T13:30:08.554Z,17.70
2022-11-04T13:32:49.699Z,17.70
2022-11-04T13:35:30.000Z,17.70
2022-11-04T13:38:08.777Z,17.70
2022-11-04T13:40:50.952Z,17.50
2022-11-04T13:43:40.330Z,17.50
2022-11-04T13:46:24.777Z,17.50
2022-11-04T13:49:05.804Z,17.40
2022-11-04T13:51:41.878Z,17.10
2022-11-04T13:54:29.430Z,17.30
2022-11-04T13:57:12.232Z,17.30
2022-11-04T13:59:41.356Z,17.20
2022-11-04T14:02:43.932Z,17.40
2022-11-04T14:05:48.105Z,17.30
2022-11-04T14:08:18.120Z,17.30
2022-11-04T14:11:11.524Z,17.20
2022-11-04T14:14:18.081Z,17.00
2022-11-04T14:16:47.188Z,16.90
2022-11-04T14:19:57.876Z,17.40
2022-11-04T14:22:37.653Z,17.50
2022-11-04T14:25:33.383Z,17.50
2022-11-04T14:28:17.743Z,17.60
2022-11-04T14:30:51.859Z,17.60
2022-11-04T14:33:42.604Z,17.50
2022-11-04T14:36:35.637Z,17.50
2022-11-04T14:39:08.827Z,17.60
2022-11-04T14:42:00.642Z,17.50
2022-11-04T14:44:36.788Z,17.40
2022-11-04T14:47:18.527Z,17.50
2022-11-04T14:49:49.545Z,17.50
2022-11-04T14:52:25.409Z,17.50
2022-11-04T14:54:59.600Z,17.50
2022-11-04T14:57:36.537Z,17.30
2022-11-04T15:03:57.512Z,17.30
2022-11-04T15:06:09.157Z,17.30
2022-11-04T15:08:46.078Z,17.20
2022-11-04T15:11:19.062Z,17.30
2022-11-04T15:13:50.260Z,17.40
2022-11-04T15:16:22.229Z,17.40
2022-11-04T15:18:53.683Z,17.40
2022-11-04T15:21:22.492Z,17.40
2022-11-04T15:23:53.292Z,17.40
2022-11-04T15:26:29.443Z,17.40
2022-11-04T15:29:00.414Z,17.40
2022-11-04T15:31:30.747Z,17.40
2022-11-04T15:34:03.163Z,17.50
2022-11-04T15:36:36.130Z,17.40
2022-11-04T15:39:09.016Z,17.40
2022-11-04T15:42:12.220Z,17.40
2022-11-04T15:44:46.036Z,17.40
2022-11-04T15:47:32.112Z,17.40
2022-11-04T15:50:22.300Z,17.40
2022-11-04T15:52:55.647Z,17.40
2022-11-04T15:55:27.116Z,17.40
2022-11-04T15:57:56.588Z,17.40
2022-11-04T16:00:28.360Z,17.40
2022-11-04T16:02:59.556Z,17.40
2022-11-04T16:05:33.193Z,17.50
2022-11-04T16:08:21.075Z,17.40
2022-11-04T16:10:50.514Z,17.40
2022-11-04T16:13:25.708Z,17.40
2022-11-04T16:16:09.274Z,17.50
2022-11-04T16:18:40.906Z,17.50
2022-11-04T16:21:21.658Z,17.50
2022-11-04T16:23:55.638Z,17.50
2022-11-04T16:26:29.991Z,17.50
2022-11-04T16:29:01.900Z,17.50
2022-11-04T16:31:35.743Z,17.50
2022-11-04T16:34:05.336Z,17.50
2022-11-04T16:36:35.997Z,17.50
2022-11-04T16:39:08.805Z,17.50
2022-11-04T16:41:40.364Z,17.60
2022-11-04T16:44:24.040Z,17.50
2022-11-04T16:46:52.700Z,17.60
2022-11-04T16:49:22.890Z,17.50
2022-11-04T16:51:56.093Z,17.50
2022-11-04T16:54:24.699Z,17.50
2022-11-04T16:56:52.989Z,17.50
2022-11-04T16:59:21.345Z,17.50
2022-11-04T17:01:49.626Z,17.50
2022-11-04T17:04:17.971Z,17.50
2022-11-04T17:06:46.415Z,17.50
2022-11-04T17:09:23.635Z,17.40
2022-11-04T17:11:51.887Z,17.40
2022-11-04T17:14:20.144Z,17.30
2022-11-04T17:16:48.365Z,17.40
2022-11-04T17:19:17.528Z,17.30
2022-11-04T17:21:46.504Z,17.40
2022-11-04T17:24:14.911Z,17.40
2022-11-04T17:26:44.499Z,17.30
2022-11-04T17:29:17.096Z,17.40
2022-11-04T17:31:45.782Z,17.40
2022-11-04T17:34:14.037Z,17.30
2022-11-04T17:36:42.456Z,17.00
2022-11-04T17:39:10.746Z,17.20
2022-11-04T17:41:56.273Z,16.80
2022-11-04T17:44:25.929Z,16.90
2022-11-04T17:46:54.203Z,17.10
2022-11-04T17:49:25.320Z,17.20
2022-11-04T17:51:56.589Z,17.30
2022-11-04T17:54:26.156Z,17.40
2022-11-04T17:56:54.379Z,17.30
2022-11-04T17:59:23.113Z,17.30
2022-11-04T18:01:53.067Z,17.30
2022-11-04T18:04:23.478Z,17.30
2022-11-04T18:06:56.015Z,17.40
2022-11-04T18:09:26.753Z,17.40
2022-11-04T18:12:12.529Z,17.40
2022-11-04T18:14:40.765Z,17.40
2022-11-04T18:17:10.443Z,17.40
2022-11-04T18:19:38.729Z,17.30
2022-11-04T18:22:06.953Z,17.30
2022-11-04T18:24:36.056Z,17.40
2022-11-04T18:27:04.433Z,17.30
2022-11-04T18:29:32.669Z,17.40
2022-11-04T18:32:01.348Z,17.40
2022-11-04T18:34:30.985Z,17.30
2022-11-04T18:37:00.328Z,17.40
2022-11-04T18:39:28.579Z,17.30
2022-11-04T18:41:56.870Z,17.40
2022-11-04T18:44:25.154Z,17.30
2022-11-04T18:46:53.415Z,17.30
2022-11-04T18:49:21.680Z,17.30
2022-11-04T18:51:51.346Z,17.30
2022-11-04T18:54:19.746Z,17.30
2022-11-04T18:56:48.089Z,17.30
2022-11-04T18:59:17.167Z,17.30
2022-11-04T19:01:46.216Z,17.30
2022-11-04T19:04:15.118Z,17.30
2022-11-04T19:06:45.618Z,17.50
2022-11-04T19:09:45.904Z,17.50
2022-11-04T19:12:23.889Z,17.40
2022-11-04T19:14:52.836Z,17.40
2022-11-04T19:17:21.452Z,17.30
2022-11-04T19:19:50.285Z,17.30
2022-11-04T19:22:18.530Z,17.40
2022-11-04T19:24:48.168Z,17.40
2022-11-04T19:27:17.884Z,17.40
2022-11-04T19:29:46.667Z,17.40
2022-11-04T19:32:15.007Z,17.40
2022-11-04T19:34:43.293Z,17.30
2022-11-04T19:37:12.034Z,17.30
2022-11-04T19:39:40.623Z,17.30
2022-11-04T19:42:29.847Z,17.30
2022-11-04T19:44:59.105Z,17.30
2022-11-04T19:47:27.397Z,17.30
2022-11-04T19:49:56.093Z,17.30
2022-11-04T19:52:24.377Z,17.40
2022-11-04T19:54:52.619Z,17.40
2022-11-04T19:57:22.259Z,17.30
2022-11-04T19:59:51.833Z,17.30
2022-11-04T20:02:20.728Z,17.30
2022-11-04T20:04:50.103Z,17.30
2022-11-04T20:07:18.797Z,17.40
2022-11-04T20:09:47.021Z,17.40
2022-11-04T20:12:32.706Z,17.40
2022-11-04T20:15:02.306Z,17.40
2022-11-04T20:17:33.124Z,17.30
2022-11-04T20:20:01.356Z,17.30
2022-11-04T20:22:29.595Z,17.40
2022-11-04T20:24:57.905Z,17.30
2022-11-04T20:27:26.338Z,17.30
2022-11-04T20:29:54.588Z,17.20
2022-11-04T20:32:24.327Z,17.30
2022-11-04T20:34:53.435Z,17.30
2022-11-04T20:37:21.708Z,17.30
2022-11-04T20:39:49.962Z,17.40
2022-11-04T20:42:18.260Z,17.30
2022-11-04T20:44:46.563Z,17.40
2022-11-04T20:47:16.452Z,17.40
2022-11-04T20:49:46.193Z,17.40
2022-11-04T20:52:14.451Z,17.40
2022-11-04T20:54:42.702Z,17.30
2022-11-04T20:57:10.920Z,17.30
2022-11-04T20:59:39.131Z,17.30
2022-11-04T21:02:07.536Z,17.30
2022-11-04T21:04:36.542Z,17.20
2022-11-04T21:07:06.926Z,17.20
2022-11-04T21:09:35.202Z,17.20
2022-11-04T21:12:03.641Z,17.20
2022-11-04T21:17:03.046Z,17.10
2022-11-04T21:19:31.269Z,17.00
2022-11-04T21:21:59.621Z,17.10
2022-11-04T21:24:29.237Z,17.10
2022-11-04T21:26:57.509Z,17.10
2022-11-04T21:29:25.797Z,17.10
2022-11-04T21:31:54.077Z,17.10
2022-11-04T21:34:22.344Z,17.00
2022-11-04T21:36:53.015Z,17.10
2022-11-04T21:39:21.273Z,17.10
2022-11-04T21:41:50.891Z,17.00
2022-11-04T21:44:19.115Z,17.00
2022-11-04T21:46:51.382Z,17.00
2022-11-04T21:49:19.829Z,17.00
2022-11-04T21:51:48.074Z,16.90
2022-11-04T21:54:16.300Z,17.00
2022-11-04T21:56:44.580Z,17.00
2022-11-04T21:59:18.157Z,16.90
2022-11-04T22:01:47.067Z,16.90
2022-11-04T22:04:15.389Z,16.90
2022-11-04T22:06:43.638Z,16.90
2022-11-04T22:09:12.690Z,16.90
2022-11-04T22:11:41.092Z,16.90
2022-11-04T22:14:12.223Z,17.00
2022-11-04T22:16:42.193Z,16.90
2022-11-04T22:19:13.514Z,17.00
2022-11-04T22:21:44.851Z,16.90
2022-11-04T22:24:14.520Z,16.90
2022-11-04T22:26:43.452Z,17.00
2022-11-04T22:29:12.072Z,16.90
2022-11-04T22:31:44.783Z,16.90
2022-11-04T22:34:13.022Z,16.90
2022-11-04T22:36:41.332Z,16.90
2022-11-04T22:39:16.029Z,16.90
2022-11-04T22:41:46.252Z,16.90
2022-11-04T22:44:14.925Z,16.90
2022-11-04T22:46:44.733Z,16.80
2022-11-04T22:49:14.389Z,16.80
2022-11-04T22:51:42.682Z,16.70
2022-11-04T22:54:11.596Z,16.70
2022-11-04T22:56:39.870Z,16.70
2022-11-04T22:59:08.168Z,16.70
2022-11-04T23:01:36.581Z,16.70
2022-11-04T23:04:11.624Z,16.70
2022-11-04T23:06:40.421Z,16.70
2022-11-04T23:09:09.386Z,16.70
2022-11-04T23:11:55.216Z,16.60
2022-11-04T23:14:49.549Z,16.60
2022-11-04T23:17:38.484Z,16.50
2022-11-04T23:20:12.263Z,16.60
2022-11-04T23:22:58.577Z,16.60
2022-11-04T23:25:27.446Z,16.50
2022-11-04T23:28:14.375Z,16.40
2022-11-04T23:30:45.030Z,16.50
2022-11-04T23:33:15.980Z,16.50
2022-11-04T23:36:20.408Z,16.50
2022-11-04T23:38:50.469Z,16.40
2022-11-04T23:41:36.656Z,16.40
2022-11-04T23:44:05.325Z,16.50
2022-11-04T23:46:50.838Z,16.40
2022-11-04T23:49:36.769Z,16.40
2022-11-04T23:52:23.885Z,16.40
2022-11-04T23:55:09.635Z,16.50
2022-11-04T23:57:55.390Z,16.50
